createdAt,value
2017-10-26T00:00:42.733Z,11.23
2017-10-26T00:01:42.709Z,11.26
2017-10-26T00:02:42.676Z,11.27
2017-10-26T00:03:42.684Z,11.16
2017-10-26T00:04:42.622Z,11.17
2017-10-26T00:05:42.615Z,11.33
2017-10-26T00:06:42.569Z,11.23
2017-10-26T00:07:42.543Z,11.20
2017-10-26T00:08:42.518Z,11.36
2017-10-26T00:09:42.505Z,11.31
2017-10-26T00:10:42.463Z,11.23
2017-10-26T00:11:42.440Z,11.33
2017-10-26T00:12:42.414Z,11.35
2017-10-26T00:13:42.386Z,11.33
2017-10-26T00:14:42.360Z,11.33
2017-10-26T00:15:42.336Z,11.30
2017-10-26T00:16:42.559Z,11.23
2017-10-26T00:17:42.282Z,11.28
2017-10-26T00:18:42.256Z,11.35
2017-10-26T00:19:42.231Z,11.45
2017-10-26T00:20:42.209Z,11.36
2017-10-26T00:21:42.177Z,11.39
2017-10-26T00:22:42.513Z,11.36
2017-10-26T00:23:42.126Z,11.45
2017-10-26T00:24:42.098Z,11.41
2017-10-26T00:25:42.071Z,11.44
2017-10-26T00:26:42.052Z,11.33
2017-10-26T00:27:42.019Z,11.41
2017-10-26T00:28:41.992Z,11.49
2017-10-26T00:29:41.969Z,11.42
2017-10-26T00:30:41.946Z,11.38
2017-10-26T00:31:41.912Z,11.31
2017-10-26T00:32:41.891Z,11.35
2017-10-26T00:33:41.866Z,11.39
2017-10-26T00:34:41.837Z,11.42
2017-10-26T00:35:41.813Z,11.44
2017-10-26T00:36:41.787Z,11.41
2017-10-26T00:37:41.765Z,11.53
2017-10-26T00:38:41.734Z,11.45
2017-10-26T00:39:41.721Z,11.41
2017-10-26T00:40:41.682Z,11.33
2017-10-26T00:41:41.652Z,11.36
2017-10-26T00:42:41.629Z,11.45
2017-10-26T00:43:41.603Z,11.48
2017-10-26T00:44:41.574Z,11.46
2017-10-26T00:45:41.552Z,11.39
2017-10-26T00:46:41.535Z,11.42
2017-10-26T00:47:41.501Z,11.36
2017-10-26T00:48:41.473Z,11.38
2017-10-26T00:49:41.446Z,11.39
2017-10-26T00:50:41.416Z,11.35
2017-10-26T00:51:41.391Z,11.33
2017-10-26T00:52:41.627Z,11.35
2017-10-26T00:53:41.347Z,11.35
2017-10-26T00:54:41.313Z,11.35
2017-10-26T00:55:41.290Z,11.39
2017-10-26T00:56:41.267Z,11.27
2017-10-26T00:57:41.242Z,11.36
2017-10-26T00:58:41.559Z,11.27
2017-10-26T00:59:41.184Z,11.24
2017-10-26T01:00:41.160Z,11.30
2017-10-26T01:01:41.132Z,11.31
2017-10-26T01:02:41.107Z,11.36
2017-10-26T01:03:41.081Z,11.36
2017-10-26T01:04:41.055Z,11.38
2017-10-26T01:05:41.030Z,11.38
2017-10-26T01:06:41.004Z,11.36
2017-10-26T01:07:40.982Z,11.27
2017-10-26T01:08:40.952Z,11.35
2017-10-26T01:09:40.925Z,11.27
2017-10-26T01:10:40.898Z,11.27
2017-10-26T01:11:40.886Z,11.36
2017-10-26T01:12:40.857Z,11.44
2017-10-26T01:13:40.825Z,11.39
2017-10-26T01:14:41.053Z,11.42
2017-10-26T01:15:40.774Z,11.27
2017-10-26T01:16:40.739Z,11.35
2017-10-26T01:17:40.715Z,11.31
2017-10-26T01:18:40.693Z,11.31
2017-10-26T01:19:40.669Z,11.31
2017-10-26T01:20:40.885Z,11.26
2017-10-26T01:21:40.617Z,11.33
2017-10-26T01:22:40.589Z,11.24
2017-10-26T01:23:40.563Z,11.26
2017-10-26T01:24:40.540Z,11.41
2017-10-26T01:25:40.511Z,11.36
2017-10-26T01:26:40.483Z,11.30
2017-10-26T01:27:40.461Z,11.27
2017-10-26T01:28:40.430Z,11.28
2017-10-26T01:29:40.410Z,11.33
2017-10-26T01:30:40.384Z,11.26
2017-10-26T01:31:40.351Z,11.23
2017-10-26T01:32:40.326Z,11.33
2017-10-26T01:33:40.303Z,11.35
2017-10-26T01:34:40.277Z,11.33
2017-10-26T01:35:40.253Z,11.36
2017-10-26T01:36:40.219Z,11.27
2017-10-26T01:37:40.200Z,11.27
2017-10-26T01:38:40.173Z,11.38
2017-10-26T01:39:40.146Z,11.36
2017-10-26T01:40:40.131Z,11.42
2017-10-26T01:41:40.097Z,11.36
2017-10-26T01:42:40.071Z,11.35
2017-10-26T01:43:40.050Z,11.41
2017-10-26T01:44:40.011Z,11.42
2017-10-26T01:45:39.993Z,11.41
2017-10-26T01:46:39.966Z,11.44
2017-10-26T01:47:39.939Z,11.46
2017-10-26T01:48:39.912Z,11.48
2017-10-26T01:49:39.884Z,11.42
2017-10-26T01:50:39.866Z,11.39
2017-10-26T01:51:39.837Z,11.38
2017-10-26T01:52:39.813Z,11.38
2017-10-26T01:53:39.783Z,11.35
2017-10-26T01:54:39.758Z,11.30
2017-10-26T01:55:39.733Z,11.36
2017-10-26T01:56:40.001Z,11.33
2017-10-26T01:57:39.683Z,11.28
2017-10-26T01:58:39.653Z,11.36
2017-10-26T01:59:39.624Z,11.28
2017-10-26T02:00:39.603Z,11.33
2017-10-26T02:01:39.575Z,11.31
2017-10-26T02:02:39.548Z,11.33
2017-10-26T02:03:39.520Z,11.36
2017-10-26T02:04:39.495Z,11.41
2017-10-26T02:05:39.477Z,11.36
2017-10-26T02:06:39.449Z,11.38
2017-10-26T02:07:39.425Z,11.33
2017-10-26T02:08:39.398Z,11.33
2017-10-26T02:09:39.370Z,11.38
2017-10-26T02:10:39.342Z,11.36
2017-10-26T02:11:39.321Z,11.38
2017-10-26T02:12:39.305Z,11.36
2017-10-26T02:13:39.265Z,11.35
2017-10-26T02:14:39.237Z,11.33
2017-10-26T02:15:39.221Z,11.28
2017-10-26T02:16:39.188Z,11.33
2017-10-26T02:17:39.165Z,11.38
2017-10-26T02:18:39.136Z,11.38
2017-10-26T02:19:39.106Z,11.35
2017-10-26T02:20:39.082Z,11.30
2017-10-26T02:21:39.063Z,11.28
2017-10-26T02:22:39.033Z,11.31
2017-10-26T02:23:39.006Z,11.33
2017-10-26T02:24:38.975Z,11.36
2017-10-26T02:25:38.962Z,11.31
2017-10-26T02:26:38.929Z,11.35
2017-10-26T02:27:38.899Z,11.30
2017-10-26T02:28:38.875Z,11.28
2017-10-26T02:29:38.845Z,11.33
2017-10-26T02:30:39.123Z,11.27
2017-10-26T02:31:38.796Z,11.35
2017-10-26T02:32:38.774Z,11.27
2017-10-26T02:33:38.747Z,11.33
2017-10-26T02:34:38.716Z,11.33
2017-10-26T02:35:38.702Z,11.33
2017-10-26T02:36:38.674Z,11.31
2017-10-26T02:37:38.645Z,11.28
2017-10-26T02:38:38.615Z,11.28
2017-10-26T02:39:38.587Z,11.28
2017-10-26T02:40:38.569Z,11.41
2017-10-26T02:41:38.536Z,11.35
2017-10-26T02:42:38.509Z,11.23
2017-10-26T02:43:38.490Z,11.28
2017-10-26T02:44:38.461Z,11.38
2017-10-26T02:45:38.431Z,11.33
2017-10-26T02:46:38.412Z,11.36
2017-10-26T02:47:38.384Z,11.36
2017-10-26T02:48:38.357Z,11.33
2017-10-26T02:49:38.336Z,11.30
2017-10-26T02:50:38.305Z,11.31
2017-10-26T02:51:38.276Z,11.31
2017-10-26T02:52:38.254Z,11.38
2017-10-26T02:53:38.231Z,11.36
2017-10-26T02:54:38.446Z,11.36
2017-10-26T02:55:38.173Z,11.35
2017-10-26T02:56:38.148Z,11.39
2017-10-26T02:57:38.120Z,11.28
2017-10-26T02:58:38.091Z,11.36
2017-10-26T02:59:38.069Z,11.36
2017-10-26T03:00:38.047Z,11.33
2017-10-26T03:01:38.020Z,11.30
2017-10-26T03:02:37.994Z,11.20
2017-10-26T03:03:37.962Z,11.35
2017-10-26T03:04:37.940Z,11.30
2017-10-26T03:05:37.916Z,11.35
2017-10-26T03:06:37.883Z,11.33
2017-10-26T03:07:37.865Z,11.35
2017-10-26T03:08:37.837Z,11.38
2017-10-26T03:09:37.806Z,11.30
2017-10-26T03:10:37.782Z,11.36
2017-10-26T03:11:37.758Z,11.33
2017-10-26T03:12:37.732Z,11.36
2017-10-26T03:13:37.703Z,11.38
2017-10-26T03:14:37.679Z,11.42
2017-10-26T03:15:37.651Z,11.42
2017-10-26T03:16:37.634Z,11.45
2017-10-26T03:17:37.598Z,11.41
2017-10-26T03:18:37.881Z,11.44
2017-10-26T03:19:37.546Z,11.48
2017-10-26T03:20:37.527Z,11.41
2017-10-26T03:21:37.498Z,11.38
2017-10-26T03:22:37.474Z,11.41
2017-10-26T03:23:37.451Z,11.42
2017-10-26T03:24:37.420Z,11.44
2017-10-26T03:25:37.391Z,11.49
2017-10-26T03:26:37.380Z,11.45
2017-10-26T03:27:37.342Z,11.45
2017-10-26T03:28:37.322Z,11.42
2017-10-26T03:29:37.297Z,11.53
2017-10-26T03:30:37.266Z,11.45
2017-10-26T03:31:37.239Z,11.45
2017-10-26T03:32:37.218Z,11.44
2017-10-26T03:33:37.186Z,11.45
2017-10-26T03:34:37.165Z,11.53
2017-10-26T03:35:37.137Z,11.42
2017-10-26T03:36:37.113Z,11.44
2017-10-26T03:37:37.086Z,11.53
2017-10-26T03:38:37.063Z,11.53
2017-10-26T03:39:37.034Z,11.54
2017-10-26T03:40:37.009Z,11.46
2017-10-26T03:41:36.981Z,11.46
2017-10-26T03:42:37.253Z,11.51
2017-10-26T03:43:36.928Z,11.53
2017-10-26T03:44:36.901Z,11.57
2017-10-26T03:45:36.883Z,11.53
2017-10-26T03:46:36.848Z,11.56
2017-10-26T03:47:36.824Z,11.51
2017-10-26T03:48:36.797Z,11.60
2017-10-26T03:49:36.779Z,11.63
2017-10-26T03:50:36.744Z,11.60
2017-10-26T03:51:36.717Z,11.53
2017-10-26T03:52:36.696Z,11.49
2017-10-26T03:53:36.675Z,11.57
2017-10-26T03:54:36.658Z,11.62
2017-10-26T03:55:36.627Z,11.56
2017-10-26T03:56:36.594Z,11.57
2017-10-26T03:57:36.567Z,11.57
2017-10-26T03:58:36.537Z,11.62
2017-10-26T03:59:36.519Z,11.64
2017-10-26T04:00:36.496Z,11.54
2017-10-26T04:01:36.465Z,11.60
2017-10-26T04:02:36.440Z,11.53
2017-10-26T04:03:36.416Z,11.60
2017-10-26T04:04:36.392Z,11.53
2017-10-26T04:05:36.373Z,11.62
2017-10-26T04:06:36.340Z,11.62
2017-10-26T04:07:36.313Z,11.64
2017-10-26T04:08:36.286Z,11.53
2017-10-26T04:09:36.256Z,11.56
2017-10-26T04:10:36.230Z,11.59
2017-10-26T04:11:36.509Z,11.54
2017-10-26T04:12:36.184Z,11.53
2017-10-26T04:13:36.152Z,11.60
2017-10-26T04:14:36.137Z,11.53
2017-10-26T04:15:36.104Z,11.53
2017-10-26T04:16:36.090Z,11.63
2017-10-26T04:17:36.352Z,11.54
2017-10-26T04:18:36.052Z,11.53
2017-10-26T04:19:36.000Z,11.56
2017-10-26T04:20:35.980Z,11.57
2017-10-26T04:21:35.962Z,11.53
2017-10-26T04:22:35.921Z,11.67
2017-10-26T04:23:35.906Z,11.64
2017-10-26T04:24:35.879Z,11.56
2017-10-26T04:25:35.840Z,11.49
2017-10-26T04:26:35.828Z,11.53
2017-10-26T04:27:35.792Z,11.51
2017-10-26T04:28:36.021Z,11.53
2017-10-26T04:29:35.740Z,11.53
2017-10-26T04:30:35.716Z,11.53
2017-10-26T04:31:35.688Z,11.42
2017-10-26T04:32:35.661Z,11.53
2017-10-26T04:33:35.636Z,11.49
2017-10-26T04:34:35.610Z,11.49
2017-10-26T04:35:35.584Z,11.49
2017-10-26T04:36:35.562Z,11.45
2017-10-26T04:37:35.541Z,11.44
2017-10-26T04:38:35.502Z,11.45
2017-10-26T04:39:35.493Z,11.48
2017-10-26T04:40:35.456Z,11.41
2017-10-26T04:41:35.428Z,11.33
2017-10-26T04:42:35.400Z,11.49
2017-10-26T04:43:35.391Z,11.46
2017-10-26T04:44:35.359Z,11.45
2017-10-26T04:45:35.329Z,11.51
2017-10-26T04:46:35.303Z,11.48
2017-10-26T04:47:35.279Z,11.42
2017-10-26T04:48:35.254Z,11.46
2017-10-26T04:49:35.222Z,11.49
2017-10-26T04:50:35.198Z,11.49
2017-10-26T04:51:35.174Z,11.44
2017-10-26T04:52:35.145Z,11.48
2017-10-26T04:53:35.120Z,11.49
2017-10-26T04:54:35.096Z,11.44
2017-10-26T04:55:35.070Z,11.49
2017-10-26T04:56:35.040Z,11.56
2017-10-26T04:57:35.022Z,11.59
2017-10-26T04:58:34.996Z,11.56
2017-10-26T04:59:34.962Z,11.57
2017-10-26T05:00:34.938Z,11.64
2017-10-26T05:01:34.916Z,11.57
2017-10-26T05:02:34.887Z,11.62
2017-10-26T05:03:34.862Z,11.54
2017-10-26T05:04:34.839Z,11.57
2017-10-26T05:05:34.807Z,11.59
2017-10-26T05:06:34.782Z,11.62
2017-10-26T05:07:34.753Z,11.59
2017-10-26T05:08:34.730Z,11.59
2017-10-26T05:09:35.011Z,11.67
2017-10-26T05:10:34.676Z,11.70
2017-10-26T05:11:34.649Z,11.79
2017-10-26T05:12:34.633Z,11.70
2017-10-26T05:13:34.600Z,11.66
2017-10-26T05:14:34.579Z,11.72
2017-10-26T05:15:34.550Z,11.69
2017-10-26T05:16:34.532Z,11.63
2017-10-26T05:17:34.503Z,11.63
2017-10-26T05:18:34.472Z,11.63
2017-10-26T05:19:34.452Z,11.72
2017-10-26T05:20:34.428Z,11.72
2017-10-26T05:21:34.644Z,11.72
2017-10-26T05:22:34.365Z,11.74
2017-10-26T05:23:34.342Z,11.82
2017-10-26T05:24:34.325Z,11.79
2017-10-26T05:25:34.293Z,11.81
2017-10-26T05:26:34.266Z,11.81
2017-10-26T05:27:34.242Z,11.70
2017-10-26T05:28:34.217Z,11.72
2017-10-26T05:29:34.198Z,11.72
2017-10-26T05:30:34.167Z,11.81
2017-10-26T05:31:34.141Z,11.72
2017-10-26T05:32:34.119Z,11.79
2017-10-26T05:33:34.095Z,11.69
2017-10-26T05:34:34.061Z,11.67
2017-10-26T05:35:34.034Z,11.70
2017-10-26T05:36:34.010Z,11.70
2017-10-26T05:37:33.986Z,11.84
2017-10-26T05:38:33.956Z,11.79
2017-10-26T05:39:33.933Z,11.79
2017-10-26T05:40:33.907Z,11.82
2017-10-26T05:41:33.875Z,11.72
2017-10-26T05:42:33.857Z,11.84
2017-10-26T05:43:33.831Z,11.77
2017-10-26T05:44:33.814Z,11.75
2017-10-26T05:45:33.777Z,11.70
2017-10-26T05:46:33.752Z,11.77
2017-10-26T05:47:33.730Z,11.78
2017-10-26T05:48:33.700Z,11.85
2017-10-26T05:49:33.670Z,11.82
2017-10-26T05:50:33.642Z,11.85
2017-10-26T05:51:33.639Z,11.79
2017-10-26T05:52:33.592Z,11.82
2017-10-26T05:53:33.576Z,11.87
2017-10-26T05:54:33.540Z,11.78
2017-10-26T05:55:33.515Z,11.81
2017-10-26T05:56:33.505Z,11.77
2017-10-26T05:57:33.468Z,11.82
2017-10-26T05:58:33.443Z,11.81
2017-10-26T05:59:33.412Z,11.81
2017-10-26T06:00:33.397Z,11.84
2017-10-26T06:01:33.372Z,11.84
2017-10-26T06:02:33.336Z,11.81
2017-10-26T06:03:33.315Z,11.82
2017-10-26T06:04:33.291Z,11.84
2017-10-26T06:05:33.258Z,11.84
2017-10-26T06:06:33.237Z,11.78
2017-10-26T06:07:33.209Z,11.81
2017-10-26T06:08:33.487Z,11.79
2017-10-26T06:09:33.167Z,11.79
2017-10-26T06:10:33.139Z,11.78
2017-10-26T06:11:33.112Z,11.66
2017-10-26T06:12:33.083Z,11.77
2017-10-26T06:13:33.061Z,11.74
2017-10-26T06:14:33.028Z,11.82
2017-10-26T06:15:33.008Z,11.85
2017-10-26T06:16:32.984Z,11.77
2017-10-26T06:17:32.950Z,11.79
2017-10-26T06:18:32.935Z,11.81
2017-10-26T06:19:32.902Z,11.81
2017-10-26T06:20:32.875Z,11.79
2017-10-26T06:21:32.846Z,11.79
2017-10-26T06:22:32.826Z,11.81
2017-10-26T06:23:32.801Z,11.75
2017-10-26T06:24:32.767Z,11.77
2017-10-26T06:25:32.741Z,11.78
2017-10-26T06:26:32.719Z,11.81
2017-10-26T06:27:32.696Z,11.90
2017-10-26T06:28:32.666Z,11.85
2017-10-26T06:29:32.648Z,11.82
2017-10-26T06:30:32.619Z,11.84
2017-10-26T06:31:32.590Z,11.75
2017-10-26T06:32:32.564Z,11.77
2017-10-26T06:33:32.540Z,11.82
2017-10-26T06:34:32.508Z,11.90
2017-10-26T06:35:32.487Z,11.90
2017-10-26T06:36:32.462Z,11.90
2017-10-26T06:37:32.733Z,11.81
2017-10-26T06:38:32.407Z,11.81
2017-10-26T06:39:32.382Z,11.85
2017-10-26T06:40:32.365Z,11.87
2017-10-26T06:41:32.337Z,11.79
2017-10-26T06:42:32.311Z,11.81
2017-10-26T06:43:32.280Z,11.78
2017-10-26T06:44:32.262Z,11.85
2017-10-26T06:45:32.230Z,11.85
2017-10-26T06:46:32.214Z,11.87
2017-10-26T06:47:32.176Z,11.90
2017-10-26T06:48:32.154Z,11.82
2017-10-26T06:49:32.133Z,11.78
2017-10-26T06:50:32.107Z,11.88
2017-10-26T06:51:32.076Z,11.88
2017-10-26T06:52:32.050Z,11.82
2017-10-26T06:53:32.029Z,11.84
2017-10-26T06:54:32.003Z,11.87
2017-10-26T06:55:31.988Z,11.85
2017-10-26T06:56:31.962Z,11.81
2017-10-26T06:57:31.919Z,11.87
2017-10-26T06:58:31.904Z,11.88
2017-10-26T06:59:31.872Z,11.88
2017-10-26T07:00:31.847Z,11.79
2017-10-26T07:01:31.823Z,11.88
2017-10-26T07:02:31.805Z,11.79
2017-10-26T07:03:31.777Z,11.97
2017-10-26T07:04:31.757Z,11.79
2017-10-26T07:05:31.723Z,11.88
2017-10-26T07:06:31.704Z,11.94
2017-10-26T07:07:31.666Z,12.00
2017-10-26T07:08:31.644Z,11.98
2017-10-26T07:09:31.620Z,11.94
2017-10-26T07:10:31.591Z,11.84
2017-10-26T07:11:31.567Z,11.88
2017-10-26T07:12:31.543Z,11.97
2017-10-26T07:13:31.516Z,12.01
2017-10-26T07:14:31.490Z,12.04
2017-10-26T07:15:31.463Z,12.05
2017-10-26T07:16:31.454Z,12.00
2017-10-26T07:17:31.423Z,11.98
2017-10-26T07:18:31.383Z,12.15
2017-10-26T07:19:31.370Z,12.07
2017-10-26T07:20:31.343Z,12.00
2017-10-26T07:21:31.310Z,12.04
2017-10-26T07:22:31.287Z,12.01
2017-10-26T07:23:31.258Z,12.01
2017-10-26T07:24:31.232Z,12.12
2017-10-26T07:25:31.207Z,12.12
2017-10-26T07:26:31.183Z,12.07
2017-10-26T07:27:31.163Z,12.11
2017-10-26T07:28:31.130Z,12.08
2017-10-26T07:29:31.104Z,12.05
2017-10-26T07:30:31.080Z,12.05
2017-10-26T07:31:31.062Z,12.12
2017-10-26T07:32:31.042Z,12.08
2017-10-26T07:33:31.024Z,12.13
2017-10-26T07:34:30.984Z,12.19
2017-10-26T07:35:30.957Z,12.21
2017-10-26T07:36:30.929Z,12.23
2017-10-26T07:37:30.905Z,12.23
2017-10-26T07:38:30.889Z,12.22
2017-10-26T07:39:30.858Z,12.19
2017-10-26T07:40:30.836Z,12.26
2017-10-26T07:41:30.808Z,12.30
2017-10-26T07:42:30.780Z,12.22
2017-10-26T07:43:30.760Z,12.19
2017-10-26T07:44:30.727Z,12.30
2017-10-26T07:45:30.704Z,12.26
2017-10-26T07:46:30.682Z,12.11
2017-10-26T07:47:30.652Z,12.15
2017-10-26T07:48:30.627Z,12.16
2017-10-26T07:49:30.612Z,12.19
2017-10-26T07:50:30.582Z,12.26
2017-10-26T07:51:30.557Z,12.21
2017-10-26T07:52:30.534Z,12.21
2017-10-26T07:53:30.509Z,12.19
2017-10-26T07:54:30.497Z,12.15
2017-10-26T07:55:30.458Z,12.26
2017-10-26T07:56:30.441Z,12.23
2017-10-26T07:57:30.415Z,12.22
2017-10-26T07:58:30.382Z,12.19
2017-10-26T07:59:30.354Z,12.19
2017-10-26T08:00:30.332Z,12.19
2017-10-26T08:01:30.313Z,12.23
2017-10-26T08:02:30.295Z,12.19
2017-10-26T08:03:30.256Z,12.21
2017-10-26T08:04:30.236Z,12.29
2017-10-26T08:05:30.210Z,12.26
2017-10-26T08:06:30.178Z,12.22
2017-10-26T08:07:30.166Z,12.15
2017-10-26T08:08:30.131Z,12.12
2017-10-26T08:09:30.109Z,12.11
2017-10-26T08:10:30.090Z,12.11
2017-10-26T08:11:30.053Z,12.12
2017-10-26T08:12:30.033Z,12.11
2017-10-26T08:13:30.007Z,12.08
2017-10-26T08:14:29.981Z,12.07
2017-10-26T08:15:29.955Z,12.13
2017-10-26T08:16:29.940Z,12.05
2017-10-26T08:17:29.920Z,12.12
2017-10-26T08:18:29.890Z,12.07
2017-10-26T08:19:29.864Z,12.05
2017-10-26T08:20:29.834Z,12.08
2017-10-26T08:21:29.811Z,12.07
2017-10-26T08:22:29.788Z,12.04
2017-10-26T08:23:29.765Z,11.98
2017-10-26T08:24:29.738Z,12.04
2017-10-26T08:25:29.709Z,12.05
2017-10-26T08:26:29.679Z,12.04
2017-10-26T08:27:29.660Z,12.07
2017-10-26T08:28:29.631Z,12.04
2017-10-26T08:29:29.605Z,12.05
2017-10-26T08:30:29.584Z,12.12
2017-10-26T08:31:29.557Z,12.08
2017-10-26T08:32:29.530Z,12.04
2017-10-26T08:33:29.507Z,12.15
2017-10-26T08:34:29.485Z,12.16
2017-10-26T08:35:29.466Z,12.15
2017-10-26T08:36:29.436Z,12.15
2017-10-26T08:37:29.404Z,12.13
2017-10-26T08:38:29.384Z,12.12
2017-10-26T08:39:29.356Z,12.18
2017-10-26T08:40:29.331Z,12.11
2017-10-26T08:41:29.607Z,12.15
2017-10-26T08:42:29.284Z,12.11
2017-10-26T08:43:29.259Z,12.13
2017-10-26T08:44:29.244Z,12.12
2017-10-26T08:45:29.206Z,12.12
2017-10-26T08:46:29.186Z,12.12
2017-10-26T08:47:29.158Z,12.08
2017-10-26T08:48:29.134Z,12.11
2017-10-26T08:49:29.105Z,12.12
2017-10-26T08:50:29.088Z,12.18
2017-10-26T08:51:29.056Z,12.21
2017-10-26T08:52:29.042Z,12.21
2017-10-26T08:53:29.004Z,12.21
2017-10-26T08:54:28.979Z,12.22
2017-10-26T08:55:28.961Z,12.25
2017-10-26T08:56:28.937Z,12.22
2017-10-26T08:57:28.911Z,12.11
2017-10-26T08:58:28.880Z,12.08
2017-10-26T08:59:28.860Z,12.15
2017-10-26T09:00:28.877Z,12.15
2017-10-26T09:01:28.809Z,12.22
2017-10-26T09:02:28.794Z,12.22
2017-10-26T09:03:28.764Z,12.25
2017-10-26T09:04:28.729Z,12.31
2017-10-26T09:05:28.716Z,12.29
2017-10-26T09:06:28.678Z,12.37
2017-10-26T09:07:28.660Z,12.30
2017-10-26T09:08:28.633Z,12.31
2017-10-26T09:09:28.604Z,12.31
2017-10-26T09:10:28.581Z,12.29
2017-10-26T09:11:28.558Z,12.37
2017-10-26T09:12:28.534Z,12.41
2017-10-26T09:13:28.508Z,12.37
2017-10-26T09:14:28.487Z,12.37
2017-10-26T09:15:28.460Z,12.44
2017-10-26T09:16:28.430Z,12.41
2017-10-26T09:17:28.407Z,12.38
2017-10-26T09:18:28.381Z,12.40
2017-10-26T09:19:28.360Z,12.40
2017-10-26T09:20:28.337Z,12.37
2017-10-26T09:21:28.303Z,12.46
2017-10-26T09:22:28.289Z,12.51
2017-10-26T09:23:28.264Z,12.43
2017-10-26T09:24:28.236Z,12.44
2017-10-26T09:25:28.212Z,12.44
2017-10-26T09:26:28.182Z,12.41
2017-10-26T09:27:28.163Z,12.48
2017-10-26T09:28:28.130Z,12.40
2017-10-26T09:29:28.108Z,12.46
2017-10-26T09:30:28.083Z,12.49
2017-10-26T09:31:28.063Z,12.41
2017-10-26T09:32:28.037Z,12.44
2017-10-26T09:33:28.017Z,12.44
2017-10-26T09:34:27.996Z,12.51
2017-10-26T09:35:27.960Z,12.41
2017-10-26T09:36:27.944Z,12.55
2017-10-26T09:37:27.925Z,12.54
2017-10-26T09:38:27.885Z,12.51
2017-10-26T09:39:27.859Z,12.58
2017-10-26T09:40:27.845Z,12.52
2017-10-26T09:41:27.819Z,12.55
2017-10-26T09:42:27.786Z,12.54
2017-10-26T09:43:27.761Z,12.62
2017-10-26T09:44:27.751Z,12.73
2017-10-26T09:45:27.713Z,12.67
2017-10-26T09:46:27.684Z,12.63
2017-10-26T09:47:27.660Z,12.73
2017-10-26T09:48:27.637Z,12.70
2017-10-26T09:49:27.613Z,12.70
2017-10-26T09:50:27.589Z,12.73
2017-10-26T09:51:27.570Z,12.76
2017-10-26T09:52:27.547Z,12.76
2017-10-26T09:53:27.519Z,12.81
2017-10-26T09:54:27.487Z,12.76
2017-10-26T09:55:27.465Z,12.84
2017-10-26T09:56:27.440Z,12.79
2017-10-26T09:57:27.668Z,12.87
2017-10-26T09:58:27.391Z,12.79
2017-10-26T09:59:27.367Z,12.80
2017-10-26T10:00:27.343Z,12.89
2017-10-26T10:01:27.317Z,12.89
2017-10-26T10:02:27.293Z,13.01
2017-10-26T10:03:27.276Z,12.98
2017-10-26T10:04:27.245Z,12.99
2017-10-26T10:05:27.220Z,13.06
2017-10-26T10:06:27.195Z,13.10
2017-10-26T10:07:27.171Z,13.04
2017-10-26T10:08:27.146Z,13.06
2017-10-26T10:09:27.122Z,13.16
2017-10-26T10:10:27.099Z,13.03
2017-10-26T10:11:27.072Z,13.04
2017-10-26T10:12:27.047Z,13.12
2017-10-26T10:13:27.031Z,13.07
2017-10-26T10:14:27.003Z,13.09
2017-10-26T10:15:26.972Z,13.07
2017-10-26T10:16:26.955Z,13.03
2017-10-26T10:17:26.928Z,12.96
2017-10-26T10:18:26.902Z,13.04
2017-10-26T10:19:26.881Z,12.99
2017-10-26T10:20:26.862Z,12.96
2017-10-26T10:21:26.831Z,13.03
2017-10-26T10:22:26.809Z,12.96
2017-10-26T10:23:26.785Z,13.10
2017-10-26T10:24:26.751Z,13.04
2017-10-26T10:25:26.734Z,13.03
2017-10-26T10:26:26.708Z,12.95
2017-10-26T10:27:26.683Z,12.95
2017-10-26T10:28:26.656Z,13.06
2017-10-26T10:29:26.634Z,13.10
2017-10-26T10:30:26.615Z,13.09
2017-10-26T10:31:26.583Z,13.14
2017-10-26T10:32:26.559Z,13.25
2017-10-26T10:33:26.534Z,13.32
2017-10-26T10:34:26.508Z,13.39
2017-10-26T10:35:26.493Z,13.43
2017-10-26T10:36:26.459Z,13.46
2017-10-26T10:37:26.436Z,13.57
2017-10-26T10:38:26.414Z,13.48
2017-10-26T10:39:26.387Z,13.57
2017-10-26T10:40:26.363Z,13.54
2017-10-26T10:41:26.343Z,13.57
2017-10-26T10:42:26.314Z,13.53
2017-10-26T10:43:26.292Z,13.53
2017-10-26T10:44:26.273Z,13.55
2017-10-26T10:45:26.244Z,13.54
2017-10-26T10:46:26.230Z,13.47
2017-10-26T10:47:26.197Z,13.53
2017-10-26T10:48:26.183Z,13.50
2017-10-26T10:49:26.159Z,13.57
2017-10-26T10:50:26.129Z,13.63
2017-10-26T10:51:26.110Z,13.69
2017-10-26T10:52:26.085Z,13.69
2017-10-26T10:53:26.063Z,13.80
2017-10-26T10:54:26.044Z,13.80
2017-10-26T10:55:26.012Z,13.86
2017-10-26T10:56:26.243Z,13.96
2017-10-26T10:57:25.966Z,13.96
2017-10-26T10:58:25.958Z,13.88
2017-10-26T10:59:25.924Z,13.94
2017-10-26T11:00:25.895Z,13.88
2017-10-26T11:01:25.870Z,13.88
2017-10-26T11:02:25.846Z,13.93
2017-10-26T11:03:25.826Z,13.94
2017-10-26T11:04:25.803Z,14.04
2017-10-26T11:05:25.782Z,13.94
2017-10-26T11:06:25.764Z,14.02
2017-10-26T11:07:25.746Z,14.08
2017-10-26T11:08:25.711Z,14.05
2017-10-26T11:09:25.696Z,14.23
2017-10-26T11:10:25.666Z,14.26
2017-10-26T11:11:25.652Z,14.08
2017-10-26T11:12:25.628Z,14.09
2017-10-26T11:13:25.596Z,14.12
2017-10-26T11:14:25.580Z,14.09
2017-10-26T11:15:25.557Z,14.20
2017-10-26T11:16:25.537Z,14.20
2017-10-26T11:17:25.509Z,14.11
2017-10-26T11:18:25.493Z,14.35
2017-10-26T11:19:25.470Z,14.52
2017-10-26T11:20:25.443Z,14.48
2017-10-26T11:21:25.423Z,14.39
2017-10-26T11:22:25.395Z,14.53
2017-10-26T11:23:25.378Z,14.52
2017-10-26T11:24:25.354Z,14.61
2017-10-26T11:25:25.328Z,14.38
2017-10-26T11:26:25.559Z,14.54
2017-10-26T11:27:25.288Z,14.52
2017-10-26T11:28:25.267Z,14.64
2017-10-26T11:29:25.244Z,14.79
2017-10-26T11:30:25.217Z,14.64
2017-10-26T11:31:25.196Z,14.86
2017-10-26T11:32:25.185Z,14.90
2017-10-26T11:33:25.157Z,14.94
2017-10-26T11:34:25.136Z,15.23
2017-10-26T11:35:25.115Z,15.43
2017-10-26T11:36:25.089Z,15.23
2017-10-26T11:37:25.064Z,14.87
2017-10-26T11:38:25.047Z,15.09
2017-10-26T11:39:25.027Z,15.11
2017-10-26T11:40:25.007Z,15.34
2017-10-26T11:41:24.994Z,15.19
2017-10-26T11:42:24.967Z,15.55
2017-10-26T11:43:25.240Z,15.92
2017-10-26T11:44:24.919Z,15.95
2017-10-26T11:45:24.899Z,15.58
2017-10-26T11:46:24.878Z,15.27
2017-10-26T11:47:24.858Z,15.20
2017-10-26T11:48:24.839Z,15.11
2017-10-26T11:49:24.816Z,15.22
2017-10-26T11:50:24.798Z,15.23
2017-10-26T11:51:24.774Z,15.05
2017-10-26T11:52:24.752Z,15.15
2017-10-26T11:53:24.734Z,15.20
2017-10-26T11:54:24.717Z,15.48
2017-10-26T11:55:24.698Z,15.43
2017-10-26T11:56:24.677Z,15.74
2017-10-26T11:57:24.657Z,15.66
2017-10-26T11:58:24.627Z,15.89
2017-10-26T11:59:24.614Z,16.11
2017-10-26T12:00:24.591Z,16.48
2017-10-26T12:01:24.573Z,16.23
2017-10-26T12:02:24.548Z,16.32
2017-10-26T12:03:24.537Z,16.41
2017-10-26T12:04:24.507Z,16.45
2017-10-26T12:05:24.492Z,16.27
2017-10-26T12:06:24.473Z,16.54
2017-10-26T12:07:24.456Z,16.23
2017-10-26T12:08:24.445Z,16.23
2017-10-26T12:09:24.415Z,15.99
2017-10-26T12:10:24.393Z,15.96
2017-10-26T12:11:24.371Z,16.13
2017-10-26T12:12:24.356Z,16.32
2017-10-26T12:13:24.329Z,16.27
2017-10-26T12:14:24.314Z,16.10
2017-10-26T12:15:24.298Z,15.74
2017-10-26T12:16:24.483Z,15.70
2017-10-26T12:17:24.262Z,15.77
2017-10-26T12:18:24.537Z,15.59
2017-10-26T12:19:24.224Z,15.56
2017-10-26T12:20:24.196Z,15.40
2017-10-26T12:21:24.183Z,15.41
2017-10-26T12:22:24.157Z,15.38
2017-10-26T12:23:24.136Z,15.41
2017-10-26T12:24:24.119Z,15.46
2017-10-26T12:25:24.106Z,15.71
2017-10-26T12:26:24.083Z,15.78
2017-10-26T12:27:24.062Z,15.55
2017-10-26T12:28:24.044Z,15.56
2017-10-26T12:29:24.027Z,15.60
2017-10-26T12:30:24.001Z,15.66
2017-10-26T12:31:23.985Z,15.53
2017-10-26T12:32:23.954Z,15.43
2017-10-26T12:33:23.938Z,15.27
2017-10-26T12:34:23.919Z,15.23
2017-10-26T12:35:23.902Z,15.19
2017-10-26T12:36:23.872Z,15.23
2017-10-26T12:37:23.854Z,15.34
2017-10-26T12:38:23.834Z,15.37
2017-10-26T12:39:23.815Z,15.22
2017-10-26T12:40:23.799Z,15.23
2017-10-26T12:41:23.780Z,15.18
2017-10-26T12:42:23.750Z,15.19
2017-10-26T12:43:23.731Z,15.27
2017-10-26T12:44:23.713Z,15.25
2017-10-26T12:45:23.692Z,15.28
2017-10-26T12:46:23.664Z,15.25
2017-10-26T12:47:23.648Z,15.22
2017-10-26T12:48:23.623Z,15.22
2017-10-26T12:49:23.604Z,15.25
2017-10-26T12:50:23.584Z,15.09
2017-10-26T12:51:23.563Z,15.19
2017-10-26T12:52:23.544Z,15.09